Time;durP1;ratioP1;P1;durP2;ratioP2;P2;SDS_P1;SDS_P2;PMS_P1;PMS_P2;Temp;Humidity;BMP_temperature;BMP_pressure;BME280_temperature;BME280_humidity;BME280_pressure;Samples;Min_cycle;Max_cycle;Signal;HPM_P1;HPM_P2
2022/11/17 00:01:55;;;;;;;12.57;7.90;;;;;;;;;;6251098;22;20382;-81
2022/11/17 00:04:24;;;;;;;13.27;8.55;;;;;;;;;;6250427;22;20004;-82
2022/11/17 00:06:50;;;;;;;14.23;8.75;;;;;;;;;;6277813;22;19996;-81
2022/11/17 00:09:19;;;;;;;12.00;8.00;;;;;;;;;;6278205;22;20003;-81
2022/11/17 00:14:35;;;;;;;12.52;7.80;;;;;;;;;;6278646;22;20088;-81
2022/11/17 00:17:11;;;;;;;12.35;7.68;;;;;;;;;;6251292;22;20008;-81
2022/11/17 00:22:22;;;;;;;12.23;7.47;;;;;;;;;;6277584;22;20459;-81
2022/11/17 00:24:49;;;;;;;11.63;7.30;;;;;;;;;;6277310;22;20497;-81
2022/11/17 00:27:15;;;;;;;10.80;7.57;;;;;;;;;;6278305;22;20087;-81
2022/11/17 00:29:41;;;;;;;10.25;7.10;;;;;;;;;;6277675;22;20056;-81
2022/11/17 00:34:59;;;;;;;10.88;7.28;;;;;;;;;;6276885;22;20019;-81
2022/11/17 00:37:26;;;;;;;10.85;7.05;;;;;;;;;;6278011;22;20420;-81
2022/11/17 00:39:52;;;;;;;11.63;7.07;;;;;;;;;;6278320;22;20079;-80
2022/11/17 00:42:18;;;;;;;11.30;6.20;;;;;;;;;;6278021;22;20000;-81
2022/11/17 00:44:44;;;;;;;13.20;7.55;;;;;;;;;;6277662;22;20070;-81
2022/11/17 00:47:10;;;;;;;12.52;8.05;;;;;;;;;;6281473;22;20007;-81
2022/11/17 00:49:36;;;;;;;12.65;7.50;;;;;;;;;;6297804;22;20342;-79
2022/11/17 00:52:02;;;;;;;11.82;7.25;;;;;;;;;;6295676;22;19996;-81
2022/11/17 00:54:28;;;;;;;9.82;6.47;;;;;;;;;;6252822;22;20019;-81
2022/11/17 00:56:54;;;;;;;10.88;7.40;;;;;;;;;;6277650;22;20004;-81
2022/11/17 00:59:20;;;;;;;13.88;8.43;;;;;;;;;;6251499;22;20003;-81
2022/11/17 01:01:46;;;;;;;11.13;7.43;;;;;;;;;;6251214;22;20009;-81
2022/11/17 01:04:13;;;;;;;11.82;7.47;;;;;;;;;;6279872;22;20022;-81
2022/11/17 01:06:44;;;;;;;12.70;7.82;;;;;;;;;;6279774;22;20007;-81
2022/11/17 01:09:13;;;;;;;13.00;8.07;;;;;;;;;;6279310;22;20027;-82
2022/11/17 01:11:39;;;;;;;11.52;7.03;;;;;;;;;;6277954;22;20098;-81
2022/11/17 01:14:05;;;;;;;12.45;8.02;;;;;;;;;;6279104;22;20033;-81
2022/11/17 01:16:32;;;;;;;14.45;8.05;;;;;;;;;;6280203;22;20011;-81
2022/11/17 01:18:59;;;;;;;12.77;7.85;;;;;;;;;;6252782;22;20004;-81
2022/11/17 01:21:26;;;;;;;13.43;8.18;;;;;;;;;;6252504;22;20022;-81
2022/11/17 01:23:54;;;;;;;12.60;7.60;;;;;;;;;;6252181;22;20008;-81
2022/11/17 01:26:22;;;;;;;11.85;7.45;;;;;;;;;;6279535;22;19999;-81
2022/11/17 01:28:48;;;;;;;13.88;9.02;;;;;;;;;;6279577;22;20054;-81
2022/11/17 01:31:15;;;;;;;16.25;9.48;;;;;;;;;;6280068;22;20053;-82
2022/11/17 01:33:42;;;;;;;13.93;8.63;;;;;;;;;;6251912;22;20011;-81
2022/11/17 01:36:11;;;;;;;15.82;10.10;;;;;;;;;;6279724;22;20173;-81
2022/11/17 01:38:37;;;;;;;16.40;9.45;;;;;;;;;;6279710;22;20075;-81
2022/11/17 01:41:04;;;;;;;16.60;9.90;;;;;;;;;;6280520;22;20000;-81
2022/11/17 01:43:41;;;;;;;18.80;11.00;;;;;;;;;;6279398;22;19999;-81
2022/11/17 01:46:11;;;;;;;14.75;9.45;;;;;;;;;;6279651;22;20086;-82
2022/11/17 01:48:37;;;;;;;15.93;10.13;;;;;;;;;;6279155;22;20382;-81
2022/11/17 01:51:03;;;;;;;15.82;10.15;;;;;;;;;;6252229;22;19996;-81
2022/11/17 01:53:32;;;;;;;15.75;9.63;;;;;;;;;;6250857;22;20138;-81
2022/11/17 01:56:01;;;;;;;17.10;9.95;;;;;;;;;;6279176;22;20462;-81
2022/11/17 01:58:29;;;;;;;14.68;9.13;;;;;;;;;;6279258;22;20004;-81
2022/11/17 02:00:55;;;;;;;14.38;8.98;;;;;;;;;;6280277;22;20042;-81
2022/11/17 02:03:22;;;;;;;14.88;8.93;;;;;;;;;;6279055;22;19999;-82
2022/11/17 02:06:03;;;;;;;15.85;9.50;;;;;;;;;;6277885;22;20093;-81
2022/11/17 02:08:31;;;;;;;15.07;8.82;;;;;;;;;;6279436;22;20424;-81
2022/11/17 02:10:58;;;;;;;15.95;9.45;;;;;;;;;;6279505;22;20075;-81
2022/11/17 02:13:24;;;;;;;15.13;9.70;;;;;;;;;;6278393;22;20030;-81
2022/11/17 02:15:50;;;;;;;16.92;10.20;;;;;;;;;;6252052;22;20031;-81
2022/11/17 02:18:16;;;;;;;14.98;9.13;;;;;;;;;;6252112;22;20007;-81
2022/11/17 02:21:03;;;;;;;13.48;8.40;;;;;;;;;;6279456;22;20317;-81
2022/11/17 02:23:47;;;;;;;15.63;8.32;;;;;;;;;;6252818;22;20007;-81
2022/11/17 02:26:13;;;;;;;13.27;8.13;;;;;;;;;;6278989;22;20010;-81
2022/11/17 02:28:48;;;;;;;15.07;8.95;;;;;;;;;;6251932;22;20000;-81
2022/11/17 02:31:14;;;;;;;13.90;8.10;;;;;;;;;;6278651;22;19996;-80
2022/11/17 02:33:49;;;;;;;14.55;8.65;;;;;;;;;;6250557;22;20004;-80
2022/11/17 02:36:27;;;;;;;14.88;8.65;;;;;;;;;;6278465;22;20003;-80
2022/11/17 02:39:17;;;;;;;15.43;8.68;;;;;;;;;;6278037;22;20228;-79
2022/11/17 02:41:51;;;;;;;15.98;8.93;;;;;;;;;;6278885;22;20019;-79
2022/11/17 02:44:24;;;;;;;14.63;9.68;;;;;;;;;;6250483;22;20011;-79
2022/11/17 02:46:53;;;;;;;15.85;9.45;;;;;;;;;;6278450;22;20114;-81
2022/11/17 02:49:19;;;;;;;15.65;9.88;;;;;;;;;;6252582;22;20432;-80
2022/11/17 02:51:46;;;;;;;13.45;8.73;;;;;;;;;;6279131;22;20002;-80
2022/11/17 02:54:13;;;;;;;16.65;9.82;;;;;;;;;;6278542;22;19999;-80
2022/11/17 02:56:42;;;;;;;14.88;9.73;;;;;;;;;;6279039;22;20074;-80
2022/11/17 02:59:09;;;;;;;14.13;8.80;;;;;;;;;;6251253;22;20039;-80
2022/11/17 03:01:45;;;;;;;16.88;9.88;;;;;;;;;;6254372;22;20090;-79
2022/11/17 03:04:21;;;;;;;16.77;9.73;;;;;;;;;;6283091;22;20053;-79
2022/11/17 03:07:05;;;;;;;16.02;9.43;;;;;;;;;;6283215;22;19996;-79
2022/11/17 03:09:44;;;;;;;16.73;9.25;;;;;;;;;;6281331;22;20000;-80
2022/11/17 03:12:19;;;;;;;14.57;8.93;;;;;;;;;;6279708;22;20022;-80
2022/11/17 03:14:52;;;;;;;15.75;8.85;;;;;;;;;;6251390;22;20328;-79
2022/11/17 03:17:18;;;;;;;;;;;;;;;;;;6279603;22;20360;-80
2022/11/17 03:19:45;;;;;;;15.20;8.43;;;;;;;;;;6278921;22;19986;-80
2022/11/17 03:22:23;;;;;;;14.80;8.95;;;;;;;;;;6251381;22;20004;-80
2022/11/17 03:24:50;;;;;;;15.10;9.20;;;;;;;;;;6277561;22;20089;-80
2022/11/17 03:27:18;;;;;;;13.98;9.38;;;;;;;;;;6251582;22;20481;-80
2022/11/17 03:29:47;;;;;;;13.75;8.00;;;;;;;;;;6279114;22;19995;-80
2022/11/17 03:32:14;;;;;;;13.90;8.38;;;;;;;;;;6251501;22;20015;-80
2022/11/17 03:34:43;;;;;;;14.55;8.70;;;;;;;;;;6278409;22;20011;-79
2022/11/17 03:37:11;;;;;;;15.02;8.07;;;;;;;;;;6288138;22;20010;-81
2022/11/17 03:39:39;;;;;;;16.23;8.50;;;;;;;;;;6287631;22;20004;-79
2022/11/17 03:42:17;;;;;;;13.30;8.60;;;;;;;;;;6286199;22;20026;-79
2022/11/17 03:44:45;;;;;;;12.95;7.90;;;;;;;;;;6284428;22;20019;-81
2022/11/17 03:47:12;;;;;;;14.50;8.77;;;;;;;;;;6277981;22;20494;-81
2022/11/17 03:49:41;;;;;;;12.88;7.90;;;;;;;;;;6250886;22;20000;-81
2022/11/17 03:52:07;;;;;;;15.93;8.55;;;;;;;;;;6251455;22;20032;-81
2022/11/17 03:54:34;;;;;;;15.07;8.70;;;;;;;;;;6277611;22;19999;-81
2022/11/17 03:57:20;;;;;;;16.70;10.30;;;;;;;;;;6251196;22;20039;-81
2022/11/17 03:59:54;;;;;;;15.15;8.57;;;;;;;;;;6251664;22;20004;-80
2022/11/17 04:02:21;;;;;;;16.95;9.23;;;;;;;;;;6278069;22;20000;-81
2022/11/17 04:05:05;;;;;;;13.25;8.90;;;;;;;;;;6277434;22;20388;-81
2022/11/17 04:07:32;;;;;;;15.82;9.55;;;;;;;;;;6250410;22;20000;-81
2022/11/17 04:09:58;;;;;;;15.95;9.75;;;;;;;;;;6278838;22;19996;-80
2022/11/17 04:17:54;;;;;;;14.10;8.95;;;;;;;;;;6283174;22;20042;-80
2022/11/17 04:20:20;;;;;;;14.20;8.27;;;;;;;;;;6253525;22;20004;-80
2022/11/17 04:23:05;;;;;;;15.23;9.10;;;;;;;;;;6278293;22;20000;-81
2022/11/17 04:28:38;;;;;;;15.57;9.07;;;;;;;;;;6278649;22;20057;-81
2022/11/17 04:31:04;;;;;;;16.30;9.60;;;;;;;;;;6251792;22;20420;-81
2022/11/17 04:33:30;;;;;;;15.75;9.50;;;;;;;;;;6278545;22;20004;-81
2022/11/17 04:35:56;;;;;;;18.20;9.68;;;;;;;;;;6278336;22;20082;-81
2022/11/17 04:38:22;;;;;;;17.15;8.70;;;;;;;;;;6251990;22;20487;-81
2022/11/17 04:43:33;;;;;;;11.57;7.57;;;;;;;;;;6281451;22;20038;-81
2022/11/17 04:46:02;;;;;;;15.18;8.55;;;;;;;;;;6247911;23;20024;-81
2022/11/17 04:48:28;;;;;;;14.27;8.88;;;;;;;;;;6249697;23;19996;-82
2022/11/17 04:50:54;;;;;;;13.73;7.93;;;;;;;;;;6250811;23;19996;-81
2022/11/17 04:53:21;;;;;;;15.23;8.20;;;;;;;;;;6249760;23;20082;-81
2022/11/17 04:55:47;;;;;;;13.73;8.73;;;;;;;;;;6251402;23;20082;-82
2022/11/17 04:58:13;;;;;;;13.88;7.80;;;;;;;;;;6252171;23;20408;-81
2022/11/17 05:00:40;;;;;;;13.90;8.32;;;;;;;;;;6249895;23;20004;-81
2022/11/17 05:03:06;;;;;;;14.57;8.07;;;;;;;;;;6249875;23;20459;-81
2022/11/17 05:05:31;;;;;;;13.23;7.93;;;;;;;;;;6250126;23;20004;-81
2022/11/17 05:07:57;;;;;;;13.52;8.15;;;;;;;;;;6252742;23;20000;-81
2022/11/17 05:13:23;;;;;;;13.93;8.15;;;;;;;;;;6251479;23;20043;-81
2022/11/17 05:18:34;;;;;;;17.73;11.00;;;;;;;;;;6250955;23;20019;-83
2022/11/17 05:21:04;;;;;;;16.67;8.52;;;;;;;;;;6250772;23;20000;-81
2022/11/17 05:26:15;;;;;;;17.42;10.02;;;;;;;;;;6251876;23;20443;-82
2022/11/17 05:28:41;;;;;;;13.80;9.00;;;;;;;;;;6252793;23;20000;-82
2022/11/17 05:31:07;;;;;;;17.02;9.38;;;;;;;;;;6251731;23;20023;-82
2022/11/17 05:33:33;;;;;;;14.85;9.18;;;;;;;;;;6252481;23;20444;-82
2022/11/17 05:35:59;;;;;;;18.17;9.85;;;;;;;;;;6253136;23;20000;-81
2022/11/17 05:38:25;;;;;;;15.40;9.70;;;;;;;;;;6251606;23;20015;-82
2022/11/17 05:40:51;;;;;;;15.35;8.77;;;;;;;;;;6249590;23;20001;-81
2022/11/17 05:43:17;;;;;;;15.45;8.40;;;;;;;;;;6252452;23;20387;-81
2022/11/17 05:45:45;;;;;;;14.60;8.43;;;;;;;;;;6276658;22;20016;-81
2022/11/17 05:48:11;;;;;;;13.35;7.57;;;;;;;;;;6280361;22;20022;-81
2022/11/17 05:50:37;;;;;;;16.48;9.15;;;;;;;;;;6279691;22;20008;-81
2022/11/17 05:53:04;;;;;;;16.13;10.13;;;;;;;;;;6279652;22;20386;-81
2022/11/17 05:55:30;;;;;;;17.17;11.00;;;;;;;;;;6279973;22;20003;-81
2022/11/17 05:57:58;;;;;;;15.30;10.40;;;;;;;;;;6253580;22;20003;-81
2022/11/17 06:00:24;;;;;;;16.52;10.40;;;;;;;;;;6251441;22;20098;-81
2022/11/17 06:02:52;;;;;;;16.38;11.00;;;;;;;;;;6255541;22;20400;-82
2022/11/17 06:05:18;;;;;;;15.55;8.73;;;;;;;;;;6280045;22;20448;-83
2022/11/17 06:07:45;;;;;;;17.02;9.70;;;;;;;;;;6281411;22;20336;-82
2022/11/17 06:10:11;;;;;;;13.88;8.52;;;;;;;;;;6255287;22;20069;-83
2022/11/17 06:12:37;;;;;;;14.88;9.05;;;;;;;;;;6279878;22;20297;-83
2022/11/17 06:15:04;;;;;;;15.65;8.35;;;;;;;;;;6280344;22;20034;-83
2022/11/17 06:17:35;;;;;;;14.05;8.15;;;;;;;;;;6282120;22;19995;-83
2022/11/17 06:20:05;;;;;;;14.73;9.10;;;;;;;;;;6253423;22;20106;-83
2022/11/17 06:22:31;;;;;;;14.75;9.43;;;;;;;;;;6253794;22;20011;-82
2022/11/17 06:24:58;;;;;;;12.75;8.15;;;;;;;;;;6281904;22;20000;-82
2022/11/17 06:27:24;;;;;;;15.63;8.75;;;;;;;;;;6256331;22;20011;-83
2022/11/17 06:29:51;;;;;;;17.00;9.90;;;;;;;;;;6282390;22;19996;-83
2022/11/17 06:32:18;;;;;;;15.32;8.27;;;;;;;;;;6253035;22;20004;-81
2022/11/17 06:34:45;;;;;;;13.27;7.80;;;;;;;;;;6286378;22;20007;-82
2022/11/17 06:37:11;;;;;;;13.98;8.45;;;;;;;;;;6282131;22;19995;-82
2022/11/17 06:39:37;;;;;;;14.90;8.60;;;;;;;;;;6253813;22;20007;-82
2022/11/17 06:42:03;;;;;;;14.48;8.45;;;;;;;;;;6253345;22;20310;-82
2022/11/17 06:44:29;;;;;;;13.80;8.52;;;;;;;;;;6252098;22;20022;-82
2022/11/17 06:46:55;;;;;;;14.27;7.65;;;;;;;;;;6280586;22;20023;-83
2022/11/17 06:49:21;;;;;;;12.05;7.35;;;;;;;;;;6280039;22;20046;-82
2022/11/17 06:51:47;;;;;;;11.63;7.47;;;;;;;;;;6279762;22;19995;-83
2022/11/17 06:54:13;;;;;;;11.82;7.30;;;;;;;;;;6279588;22;20027;-83
2022/11/17 06:56:39;;;;;;;15.60;7.72;;;;;;;;;;6280249;22;20030;-83
2022/11/17 06:59:05;;;;;;;10.73;6.57;;;;;;;;;;6252885;22;20604;-82
2022/11/17 07:01:31;;;;;;;14.18;8.57;;;;;;;;;;6280193;22;20490;-83
2022/11/17 07:03:57;;;;;;;14.18;8.93;;;;;;;;;;6254079;22;20027;-82
2022/11/17 07:06:23;;;;;;;15.18;7.88;;;;;;;;;;6282485;22;20431;-83
2022/11/17 07:08:49;;;;;;;15.15;8.25;;;;;;;;;;6281835;22;20304;-84
2022/11/17 07:11:16;;;;;;;14.50;8.10;;;;;;;;;;6255461;22;19999;-83
2022/11/17 07:13:42;;;;;;;14.07;9.00;;;;;;;;;;6283218;22;20017;-83
2022/11/17 07:16:16;;;;;;;14.25;8.40;;;;;;;;;;6284324;22;20008;-84
2022/11/17 07:18:42;;;;;;;14.20;8.68;;;;;;;;;;6281211;22;20004;-84
2022/11/17 07:21:09;;;;;;;15.00;8.75;;;;;;;;;;6257482;22;20038;-84
2022/11/17 07:23:36;;;;;;;13.55;7.82;;;;;;;;;;6283987;22;20004;-84
2022/11/17 07:26:02;;;;;;;14.20;8.82;;;;;;;;;;6285299;22;20000;-83
2022/11/17 07:28:28;;;;;;;14.00;8.35;;;;;;;;;;6263464;22;20004;-85
2022/11/17 07:30:55;;;;;;;14.50;8.45;;;;;;;;;;6274708;22;20020;-85
2022/11/17 07:33:21;;;;;;;16.35;9.57;;;;;;;;;;6269632;22;20050;-84
2022/11/17 07:35:47;;;;;;;15.38;9.23;;;;;;;;;;6287465;22;20054;-84
2022/11/17 07:38:13;;;;;;;15.10;8.55;;;;;;;;;;6259554;22;20007;-84
2022/11/17 07:40:40;;;;;;;16.17;9.30;;;;;;;;;;6285061;22;20021;-84
2022/11/17 07:43:06;;;;;;;15.98;9.35;;;;;;;;;;6286044;22;20447;-84
2022/11/17 07:45:32;;;;;;;14.50;8.38;;;;;;;;;;6285865;22;20061;-85
2022/11/17 07:47:59;;;;;;;16.08;8.30;;;;;;;;;;6286822;22;20000;-83
2022/11/17 07:50:25;;;;;;;13.23;8.40;;;;;;;;;;6259019;22;20420;-84
2022/11/17 07:52:52;;;;;;;14.15;9.80;;;;;;;;;;6258958;22;20000;-84
2022/11/17 07:55:18;;;;;;;15.43;9.15;;;;;;;;;;6286679;22;20004;-85
2022/11/17 07:57:44;;;;;;;16.20;9.60;;;;;;;;;;6259216;22;19996;-84
2022/11/17 08:00:11;;;;;;;15.57;10.05;;;;;;;;;;6286359;22;20000;-82
2022/11/17 08:02:37;;;;;;;14.50;8.35;;;;;;;;;;6288377;22;20335;-82
2022/11/17 08:05:03;;;;;;;13.82;8.23;;;;;;;;;;6261492;22;19999;-82
2022/11/17 08:07:29;;;;;;;15.68;9.10;;;;;;;;;;6262033;22;20000;-83
2022/11/17 08:09:55;;;;;;;19.60;10.13;;;;;;;;;;6260953;22;20014;-82
2022/11/17 08:12:22;;;;;;;19.27;11.07;;;;;;;;;;6261028;22;20030;-82
2022/11/17 08:14:48;;;;;;;18.23;10.25;;;;;;;;;;6288666;22;20000;-82
2022/11/17 08:17:16;;;;;;;20.98;11.23;;;;;;;;;;6289864;22;20011;-82
2022/11/17 08:19:42;;;;;;;19.27;10.95;;;;;;;;;;6260791;22;20026;-82
2022/11/17 08:22:08;;;;;;;21.88;11.90;;;;;;;;;;6263505;22;20383;-83
2022/11/17 08:24:42;;;;;;;23.17;12.27;;;;;;;;;;6290914;22;20007;-83
2022/11/17 08:27:09;;;;;;;23.88;12.20;;;;;;;;;;6266447;22;20007;-82
2022/11/17 08:29:35;;;;;;;22.38;11.93;;;;;;;;;;6265592;22;20057;-82
2022/11/17 08:32:01;;;;;;;27.30;11.93;;;;;;;;;;6292329;22;19999;-83
2022/11/17 08:34:27;;;;;;;21.10;11.55;;;;;;;;;;6265952;22;19999;-82
2022/11/17 08:36:53;;;;;;;26.08;14.15;;;;;;;;;;6264513;22;20043;-83
2022/11/17 08:39:19;;;;;;;28.08;14.48;;;;;;;;;;6291585;22;19992;-82
2022/11/17 08:41:45;;;;;;;28.38;13.88;;;;;;;;;;6290925;22;20004;-82
2022/11/17 08:44:11;;;;;;;27.23;14.23;;;;;;;;;;6264881;22;20016;-83
2022/11/17 08:46:37;;;;;;;26.17;13.45;;;;;;;;;;6291628;22;20000;-82
2022/11/17 08:49:03;;;;;;;23.40;13.15;;;;;;;;;;6265783;22;20344;-82
2022/11/17 08:51:29;;;;;;;23.60;13.02;;;;;;;;;;6264540;22;20000;-83
2022/11/17 08:53:55;;;;;;;27.30;12.88;;;;;;;;;;6265112;22;20029;-82
2022/11/17 08:56:22;;;;;;;29.02;13.23;;;;;;;;;;6265159;22;20007;-83
2022/11/17 08:58:48;;;;;;;21.23;11.20;;;;;;;;;;6291878;22;20087;-82
2022/11/17 09:01:15;;;;;;;21.08;11.15;;;;;;;;;;6265217;22;20003;-82
2022/11/17 09:03:42;;;;;;;19.63;12.18;;;;;;;;;;6291528;22;20004;-82
2022/11/17 09:06:09;;;;;;;22.40;12.27;;;;;;;;;;6291673;22;19996;-82
2022/11/17 09:08:35;;;;;;;22.00;11.95;;;;;;;;;;6290181;22;20221;-82
2022/11/17 09:11:05;;;;;;;24.38;12.32;;;;;;;;;;6263396;22;19999;-82
2022/11/17 09:13:32;;;;;;;22.63;11.85;;;;;;;;;;6262556;22;20008;-82
2022/11/17 09:16:05;;;;;;;21.48;12.23;;;;;;;;;;6262965;22;20040;-83
2022/11/17 09:18:32;;;;;;;22.48;11.43;;;;;;;;;;6263898;22;20340;-82
2022/11/17 09:20:59;;;;;;;23.48;12.48;;;;;;;;;;6290814;22;20328;-82
2022/11/17 09:23:25;;;;;;;21.63;11.48;;;;;;;;;;6291992;22;20450;-82
2022/11/17 09:25:51;;;;;;;21.38;11.65;;;;;;;;;;6264244;22;20003;-82
2022/11/17 09:28:17;;;;;;;21.00;11.32;;;;;;;;;;6289303;22;20012;-83
2022/11/17 09:30:43;;;;;;;22.40;11.48;;;;;;;;;;6290632;22;20332;-82
2022/11/17 09:33:09;;;;;;;23.10;10.18;;;;;;;;;;6290749;22;20014;-83
2022/11/17 09:35:35;;;;;;;20.92;10.30;;;;;;;;;;6289509;22;20125;-82
2022/11/17 09:38:01;;;;;;;18.27;9.30;;;;;;;;;;6289924;22;20016;-81
2022/11/17 09:40:28;;;;;;;26.52;12.00;;;;;;;;;;6261920;22;20003;-81
2022/11/17 09:42:55;;;;;;;17.55;10.90;;;;;;;;;;6290276;22;20072;-81
2022/11/17 09:45:37;;;;;;;17.35;10.07;;;;;;;;;;6294449;22;20015;-82
2022/11/17 09:48:16;;;;;;;18.73;8.77;;;;;;;;;;6295516;22;20390;-82
2022/11/17 09:50:43;;;;;;;18.38;9.90;;;;;;;;;;6295639;22;20420;-81
2022/11/17 09:53:12;;;;;;;18.85;10.43;;;;;;;;;;6296452;22;20007;-81
2022/11/17 09:55:53;;;;;;;21.10;9.88;;;;;;;;;;6293263;22;20051;-82
2022/11/17 09:58:22;;;;;;;19.60;10.27;;;;;;;;;;6265097;22;20098;-83
2022/11/17 10:00:50;;;;;;;17.70;9.75;;;;;;;;;;6292996;22;20027;-82
2022/11/17 10:03:21;;;;;;;17.90;9.75;;;;;;;;;;6264672;22;20003;-82
2022/11/17 10:05:47;;;;;;;17.80;9.68;;;;;;;;;;6265171;22;20024;-82
2022/11/17 10:08:16;;;;;;;15.80;9.20;;;;;;;;;;6263581;22;19999;-83
2022/11/17 10:10:44;;;;;;;17.65;10.82;;;;;;;;;;6263273;22;20336;-82
2022/11/17 10:13:21;;;;;;;15.45;8.43;;;;;;;;;;6263044;22;20011;-81
2022/11/17 10:15:49;;;;;;;17.58;10.15;;;;;;;;;;6290787;22;20330;-82
2022/11/17 10:18:16;;;;;;;18.58;9.02;;;;;;;;;;6291684;22;19988;-82
2022/11/17 10:20:43;;;;;;;13.88;8.32;;;;;;;;;;6296970;22;20015;-82
2022/11/17 10:23:19;;;;;;;14.77;7.93;;;;;;;;;;6288530;22;20004;-82
2022/11/17 10:25:47;;;;;;;12.20;7.25;;;;;;;;;;6261280;22;20049;-82
2022/11/17 10:28:26;;;;;;;16.35;8.43;;;;;;;;;;6267272;22;20218;-82
2022/11/17 10:31:04;;;;;;;14.32;7.00;;;;;;;;;;6259533;22;19996;-82
2022/11/17 10:33:37;;;;;;;19.52;9.13;;;;;;;;;;6284828;22;20003;-82
2022/11/17 10:36:06;;;;;;;13.98;7.82;;;;;;;;;;6284227;22;20008;-81
2022/11/17 10:38:32;;;;;;;14.13;7.15;;;;;;;;;;6284995;22;20007;-82
2022/11/17 10:41:00;;;;;;;12.35;7.53;;;;;;;;;;6283631;22;20004;-82
2022/11/17 10:43:36;;;;;;;14.68;8.05;;;;;;;;;;6282148;22;20004;-82
2022/11/17 10:46:15;;;;;;;14.55;9.38;;;;;;;;;;6283622;22;20050;-82
2022/11/17 10:48:54;;;;;;;13.82;8.05;;;;;;;;;;6284055;22;19999;-82
2022/11/17 10:51:20;;;;;;;14.05;7.13;;;;;;;;;;6283406;22;20034;-82
2022/11/17 10:54:00;;;;;;;15.40;7.82;;;;;;;;;;6286216;22;20000;-82
2022/11/17 10:56:26;;;;;;;15.45;8.40;;;;;;;;;;6274576;22;20068;-82
2022/11/17 10:58:55;;;;;;;12.70;7.95;;;;;;;;;;6270578;22;20007;-82
2022/11/17 11:01:29;;;;;;;15.35;8.13;;;;;;;;;;6286033;22;19995;-82
2022/11/17 11:03:55;;;;;;;13.10;7.78;;;;;;;;;;6258106;22;20008;-82
2022/11/17 11:06:23;;;;;;;17.02;8.32;;;;;;;;;;6286232;22;20002;-82
2022/11/17 11:09:04;;;;;;;13.32;7.88;;;;;;;;;;6258544;22;20471;-82
2022/11/17 11:11:36;;;;;;;12.98;7.75;;;;;;;;;;6255108;22;20011;-82
2022/11/17 11:14:21;;;;;;;14.93;8.23;;;;;;;;;;6283366;22;20006;-83
2022/11/17 11:16:50;;;;;;;15.45;7.70;;;;;;;;;;6284553;22;20000;-83
2022/11/17 11:19:17;;;;;;;14.88;7.70;;;;;;;;;;6256834;22;20328;-82
2022/11/17 11:21:49;;;;;;;12.82;7.95;;;;;;;;;;6283245;22;20000;-83
2022/11/17 11:24:33;;;;;;;12.90;7.55;;;;;;;;;;6281769;22;20049;-82
2022/11/17 11:27:18;;;;;;;11.57;7.22;;;;;;;;;;6279975;22;19996;-82
2022/11/17 11:29:44;;;;;;;12.43;7.28;;;;;;;;;;6253953;22;20004;-82
2022/11/17 11:32:10;;;;;;;12.25;7.35;;;;;;;;;;6252895;22;20059;-81
2022/11/17 11:34:46;;;;;;;11.55;7.53;;;;;;;;;;6280873;22;20502;-82
2022/11/17 11:37:13;;;;;;;12.55;7.70;;;;;;;;;;6252859;22;20010;-83
2022/11/17 11:39:39;;;;;;;12.88;8.07;;;;;;;;;;6280411;22;20000;-82
2022/11/17 11:42:22;;;;;;;11.75;6.95;;;;;;;;;;6280908;22;19999;-82
2022/11/17 11:44:58;;;;;;;11.23;6.40;;;;;;;;;;6278988;22;20053;-82
2022/11/17 11:47:44;;;;;;;11.90;7.05;;;;;;;;;;6254383;22;19996;-83
2022/11/17 11:50:13;;;;;;;11.48;6.72;;;;;;;;;;6253276;22;19996;-83
2022/11/17 11:52:41;;;;;;;11.70;6.85;;;;;;;;;;6280215;22;20499;-82
2022/11/17 11:55:18;;;;;;;11.70;6.65;;;;;;;;;;6254063;22;20011;-82
2022/11/17 11:57:48;;;;;;;14.90;7.78;;;;;;;;;;6281112;22;20026;-82
2022/11/17 12:00:15;;;;;;;13.77;7.63;;;;;;;;;;6279995;22;20035;-82
2022/11/17 12:02:41;;;;;;;11.95;6.88;;;;;;;;;;6251754;22;20006;-82
2022/11/17 12:05:07;;;;;;;13.10;7.53;;;;;;;;;;6280564;22;20003;-83
2022/11/17 12:07:54;;;;;;;14.48;7.32;;;;;;;;;;6280524;22;20010;-82
2022/11/17 12:10:23;;;;;;;12.48;7.32;;;;;;;;;;6279790;22;20000;-82
2022/11/17 12:12:49;;;;;;;12.18;7.38;;;;;;;;;;6280579;22;20027;-82
2022/11/17 12:15:18;;;;;;;12.55;7.82;;;;;;;;;;6280162;22;19996;-83
2022/11/17 12:17:50;;;;;;;12.73;7.13;;;;;;;;;;6280643;22;20062;-83
2022/11/17 12:20:35;;;;;;;14.07;8.27;;;;;;;;;;6253703;22;20026;-83
2022/11/17 12:23:10;;;;;;;13.05;7.97;;;;;;;;;;6280566;22;19996;-84
2022/11/17 12:25:43;;;;;;;12.93;6.97;;;;;;;;;;6280207;22;20379;-83
2022/11/17 12:28:26;;;;;;;12.88;7.55;;;;;;;;;;6280700;22;19996;-83
2022/11/17 12:31:05;;;;;;;13.00;7.40;;;;;;;;;;6280203;22;19999;-84
2022/11/17 12:33:50;;;;;;;13.70;8.00;;;;;;;;;;6252911;22;20405;-83
2022/11/17 12:36:22;;;;;;;15.13;8.43;;;;;;;;;;6253608;22;20039;-84
2022/11/17 12:38:49;;;;;;;12.98;7.63;;;;;;;;;;6252577;22;20024;-84
2022/11/17 12:41:15;;;;;;;14.10;8.73;;;;;;;;;;6279049;22;20010;-84
2022/11/17 12:43:41;;;;;;;13.55;8.02;;;;;;;;;;6252476;22;20003;-84
2022/11/17 12:46:16;;;;;;;13.25;8.38;;;;;;;;;;6278948;22;20093;-84
2022/11/17 12:49:02;;;;;;;13.90;7.80;;;;;;;;;;6278473;22;20002;-84
2022/11/17 12:51:39;;;;;;;13.70;8.20;;;;;;;;;;6278723;22;20018;-84
2022/11/17 12:54:23;;;;;;;13.20;8.68;;;;;;;;;;6279052;22;20000;-84
2022/11/17 12:56:53;;;;;;;13.85;7.70;;;;;;;;;;6279635;22;19999;-83
2022/11/17 12:59:34;;;;;;;12.80;7.88;;;;;;;;;;6282223;22;20007;-85
2022/11/17 13:02:00;;;;;;;13.27;8.02;;;;;;;;;;6252770;22;20014;-84
2022/11/17 13:04:33;;;;;;;13.05;7.90;;;;;;;;;;6279613;22;20008;-85
2022/11/17 13:07:04;;;;;;;14.27;8.73;;;;;;;;;;6280030;22;20704;-84
2022/11/17 13:09:32;;;;;;;14.93;9.10;;;;;;;;;;6254116;22;20337;-84
2022/11/17 13:12:05;;;;;;;13.45;9.13;;;;;;;;;;6281491;22;19995;-84
2022/11/17 13:14:32;;;;;;;13.82;8.52;;;;;;;;;;6255614;22;20007;-84
2022/11/17 13:16:59;;;;;;;14.00;8.13;;;;;;;;;;6254194;22;20007;-85
2022/11/17 13:19:25;;;;;;;12.80;8.40;;;;;;;;;;6254204;22;20015;-85
2022/11/17 13:21:57;;;;;;;12.70;7.55;;;;;;;;;;6281562;22;20195;-84
2022/11/17 13:24:30;;;;;;;13.60;8.57;;;;;;;;;;6252333;22;20004;-83
2022/11/17 13:27:00;;;;;;;13.35;7.97;;;;;;;;;;6252452;22;20010;-84
2022/11/17 13:29:26;;;;;;;14.27;8.45;;;;;;;;;;6279887;22;20000;-84
2022/11/17 13:32:13;;;;;;;13.93;8.93;;;;;;;;;;6279827;22;19995;-84
2022/11/17 13:34:46;;;;;;;14.77;9.43;;;;;;;;;;6280144;22;20435;-84
2022/11/17 13:37:20;;;;;;;14.75;8.98;;;;;;;;;;6280333;22;20006;-84
2022/11/17 13:39:56;;;;;;;14.00;8.93;;;;;;;;;;6279914;22;20002;-84
2022/11/17 13:42:23;;;;;;;15.48;9.00;;;;;;;;;;6252295;22;20003;-84
2022/11/17 13:44:49;;;;;;;14.65;8.45;;;;;;;;;;6252126;22;20073;-84
2022/11/17 13:47:19;;;;;;;13.00;8.35;;;;;;;;;;6252785;22;20000;-84
2022/11/17 13:49:45;;;;;;;13.25;8.30;;;;;;;;;;6252693;22;20035;-84
2022/11/17 13:52:14;;;;;;;13.52;8.88;;;;;;;;;;6279677;22;19996;-84
2022/11/17 13:54:44;;;;;;;16.08;10.63;;;;;;;;;;6279275;22;20000;-83
2022/11/17 13:57:24;;;;;;;15.32;10.05;;;;;;;;;;6280689;22;19999;-84
2022/11/17 13:59:50;;;;;;;17.15;10.02;;;;;;;;;;6252752;22;20007;-84
2022/11/17 14:02:22;;;;;;;19.75;11.43;;;;;;;;;;6252095;22;20004;-84
2022/11/17 14:05:18;;;;;;;14.57;9.38;;;;;;;;;;6252853;22;20095;-84
2022/11/17 14:07:44;;;;;;;14.27;8.70;;;;;;;;;;6279539;22;20000;-84
2022/11/17 14:10:20;;;;;;;13.80;8.52;;;;;;;;;;6252998;22;20447;-83
2022/11/17 14:12:53;;;;;;;10.88;7.78;;;;;;;;;;6295058;22;19992;-83
2022/11/17 14:15:26;;;;;;;12.05;8.20;;;;;;;;;;6277288;22;20010;-83
2022/11/17 14:17:53;;;;;;;12.80;7.75;;;;;;;;;;6284454;22;19996;-84
2022/11/17 14:20:30;;;;;;;13.77;7.75;;;;;;;;;;6253379;22;20010;-84
2022/11/17 14:23:04;;;;;;;12.00;7.25;;;;;;;;;;6279819;22;20003;-84
2022/11/17 14:25:33;;;;;;;13.35;8.43;;;;;;;;;;6279867;22;20002;-83
2022/11/17 14:28:00;;;;;;;11.68;7.55;;;;;;;;;;6280149;22;20067;-84
2022/11/17 14:30:26;;;;;;;11.73;7.60;;;;;;;;;;6280196;22;20023;-83
2022/11/17 14:32:52;;;;;;;13.75;8.88;;;;;;;;;;6281014;22;19996;-83
2022/11/17 14:35:18;;;;;;;16.05;9.05;;;;;;;;;;6253858;22;20208;-83
2022/11/17 14:37:44;;;;;;;13.90;8.45;;;;;;;;;;6253729;22;20004;-83
2022/11/17 14:40:14;;;;;;;16.10;9.20;;;;;;;;;;6253634;22;20004;-81
2022/11/17 14:42:40;;;;;;;15.95;9.93;;;;;;;;;;6280602;22;20006;-84
2022/11/17 14:45:08;;;;;;;14.07;9.18;;;;;;;;;;6280618;22;20039;-84
2022/11/17 14:47:34;;;;;;;14.25;9.40;;;;;;;;;;6281246;22;20340;-84
2022/11/17 14:50:00;;;;;;;14.38;9.60;;;;;;;;;;6280270;22;19996;-83
2022/11/17 14:52:26;;;;;;;14.57;8.45;;;;;;;;;;6280405;22;19999;-84
2022/11/17 14:54:52;;;;;;;13.85;8.52;;;;;;;;;;6280290;22;19999;-84
2022/11/17 14:57:18;;;;;;;14.77;8.60;;;;;;;;;;6280949;22;20041;-83
2022/11/17 14:59:44;;;;;;;12.48;8.27;;;;;;;;;;6280104;22;20004;-84
2022/11/17 15:02:11;;;;;;;13.75;9.05;;;;;;;;;;6280779;22;20006;-83
2022/11/17 15:04:40;;;;;;;12.43;8.27;;;;;;;;;;6252918;22;20000;-84
2022/11/17 15:07:06;;;;;;;14.10;8.55;;;;;;;;;;6280222;22;20000;-83
2022/11/17 15:09:32;;;;;;;13.23;8.57;;;;;;;;;;6252292;22;20049;-82